Terminal Aerodrome Forecast
Issued by NWS

Home | Current Version | Previous Version | Text Only | Print | Product List | Glossary On
Versions: 1 2 3 4 5 6 7 8 9 10 11 12 13 14 15 16 17 18 19
459
FTAK31 PAJN 211138
TAFAGY
TAF
PAGY 211138Z 2112/2212 04020G30KT P6SM OVC070
     FM211800 04018G25KT P6SM OVC050
     FM220100 04015G22KT P6SM OVC040 PROB30 2209/2212 3SM -SHSN
      OVC025
      AMD LTD TO CLD VIS AND WIND=

USA.gov is the U.S. government's official web portal to all federal, state and local government web resources and services.